Time,TemperatureF,DewpointF,PressureIn,WindDirection,WindDirectionDegrees,WindSpeedMPH,WindSpeedGustMPH,Humidity,HourlyPrecipIn,Conditions,Clouds,dailyrainin,SolarRadiationWatts/m^2,SoftwareType,DateUTC
2013-11-04 00:03:00,20.0,16.0,-100.00,East,88,1.0,2.0,83,0.00,,,0.00,0.000000,,2013-11-04 05:03:00,
2013-11-04 00:10:00,19.0,15.0,-100.00,East,81,1.0,2.0,85,0.00,,,0.00,0.000000,,2013-11-04 05:10:00,
2013-11-04 00:44:00,19.0,15.0,-100.00,East,81,1.0,2.0,85,0.00,,,0.00,0.000000,,2013-11-04 05:44:00,
2013-11-04 00:53:00,19.0,15.0,-100.00,East,81,1.0,2.0,85,0.00,,,0.00,0.000000,,2013-11-04 05:53:00,
2013-11-04 01:02:00,19.0,15.0,-100.00,East,81,1.0,2.0,85,0.00,,,0.00,0.000000,,2013-11-04 06:02:00,
2013-11-04 01:10:00,18.0,15.0,-100.00,ESE,102,1.0,3.0,87,0.00,,,0.00,0.000000,,2013-11-04 06:10:00,
2013-11-04 01:42:00,18.0,15.0,-100.00,ESE,102,1.0,3.0,87,0.00,,,0.00,0.000000,,2013-11-04 06:42:00,
2013-11-04 01:52:00,18.0,15.0,-100.00,ESE,102,1.0,3.0,87,0.00,,,0.00,0.000000,,2013-11-04 06:52:00,
2013-11-04 02:01:00,18.0,15.0,-100.00,ESE,102,1.0,3.0,87,0.00,,,0.00,0.000000,,2013-11-04 07:01:00,
2013-11-04 02:10:00,17.0,14.0,-100.00,East,101,1.0,2.0,87,0.00,,,0.00,0.000000,,2013-11-04 07:10:00,
2013-11-04 02:43:00,17.0,14.0,-100.00,East,101,1.0,2.0,87,0.00,,,0.00,0.000000,,2013-11-04 07:43:00,
2013-11-04 02:52:00,17.0,14.0,-100.00,East,101,1.0,2.0,87,0.00,,,0.00,0.000000,,2013-11-04 07:52:00,
2013-11-04 03:02:00,17.0,14.0,-100.00,East,101,1.0,2.0,87,0.00,,,0.00,0.000000,,2013-11-04 08:02:00,
2013-11-04 03:10:00,16.0,13.0,-100.00,ESE,111,0.0,1.0,87,0.00,,,0.00,0.000000,,2013-11-04 08:10:00,
2013-11-04 03:42:00,16.0,13.0,-100.00,ESE,111,0.0,1.0,87,0.00,,,0.00,0.000000,,2013-11-04 08:42:00,
2013-11-04 03:52:00,16.0,13.0,-100.00,ESE,111,0.0,1.0,87,0.00,,,0.00,0.000000,,2013-11-04 08:52:00,
2013-11-04 04:02:00,16.0,13.0,-100.00,ESE,111,0.0,1.0,87,0.00,,,0.00,0.000000,,2013-11-04 09:02:00,
2013-11-04 04:10:00,15.0,12.0,-100.00,East,94,1.0,2.0,86,0.00,,,0.00,0.000000,,2013-11-04 09:10:00,
2013-11-04 04:43:00,15.0,12.0,-100.00,East,94,1.0,2.0,86,0.00,,,0.00,0.000000,,2013-11-04 09:43:00,
2013-11-04 04:53:00,15.0,12.0,-100.00,East,94,1.0,2.0,86,0.00,,,0.00,0.000000,,2013-11-04 09:53:00,
2013-11-04 05:03:00,15.0,12.0,-100.00,East,94,1.0,2.0,86,0.00,,,0.00,0.000000,,2013-11-04 10:03:00,
2013-11-04 05:10:00,15.0,12.0,-100.00,ENE,78,0.0,2.0,86,0.00,,,0.00,0.000000,,2013-11-04 10:10:00,
2013-11-04 05:42:00,15.0,12.0,-100.00,ENE,78,0.0,2.0,86,0.00,,,0.00,0.000000,,2013-11-04 10:42:00,
2013-11-04 05:52:00,15.0,12.0,-100.00,ENE,78,0.0,2.0,86,0.00,,,0.00,0.000000,,2013-11-04 10:52:00,
2013-11-04 06:02:00,15.0,12.0,-100.00,ENE,78,0.0,2.0,86,0.00,,,0.00,0.000000,,2013-11-04 11:02:00,
2013-11-04 06:10:00,14.0,10.0,-100.00,ESE,108,1.0,2.0,85,0.00,,,0.00,0.000000,,2013-11-04 11:10:00,
2013-11-04 06:43:00,14.0,10.0,-100.00,ESE,108,1.0,2.0,85,0.00,,,0.00,0.000000,,2013-11-04 11:43:00,
2013-11-04 06:52:00,14.0,10.0,-100.00,ESE,108,1.0,2.0,85,0.00,,,0.00,0.000000,,2013-11-04 11:52:00,
2013-11-04 07:02:00,14.0,10.0,-100.00,ESE,108,1.0,2.0,85,0.00,,,0.00,0.000000,,2013-11-04 12:02:00,
2013-11-04 07:10:00,15.0,11.0,-100.00,SE,138,1.0,2.0,85,0.00,,,0.00,5.000000,,2013-11-04 12:10:00,
2013-11-04 07:42:00,15.0,11.0,-100.00,SE,138,1.0,2.0,85,0.00,,,0.00,5.000000,,2013-11-04 12:42:00,
2013-11-04 07:52:00,15.0,11.0,-100.00,SE,138,1.0,2.0,85,0.00,,,0.00,5.000000,,2013-11-04 12:52:00,
2013-11-04 08:02:00,15.0,11.0,-100.00,SE,138,1.0,2.0,85,0.00,,,0.00,5.000000,,2013-11-04 13:02:00,
2013-11-04 08:10:00,18.0,15.0,-100.00,SW,222,0.0,0.0,87,0.00,,,0.00,19.000000,,2013-11-04 13:10:00,
2013-11-04 08:42:00,18.0,15.0,-100.00,SW,222,0.0,0.0,87,0.00,,,0.00,19.000000,,2013-11-04 13:42:00,
2013-11-04 08:52:00,18.0,15.0,-100.00,SW,222,0.0,0.0,87,0.00,,,0.00,19.000000,,2013-11-04 13:52:00,
2013-11-04 09:02:00,18.0,15.0,-100.00,SW,222,0.0,0.0,87,0.00,,,0.00,19.000000,,2013-11-04 14:02:00,
2013-11-04 09:10:00,24.0,19.0,-100.00,NW,326,1.0,2.0,82,0.00,,,0.00,26.000000,,2013-11-04 14:10:00,
2013-11-04 09:42:00,24.0,19.0,-100.00,NW,326,1.0,2.0,82,0.00,,,0.00,26.000000,,2013-11-04 14:42:00,
2013-11-04 09:52:00,24.0,19.0,-100.00,NW,326,1.0,2.0,82,0.00,,,0.00,26.000000,,2013-11-04 14:52:00,
2013-11-04 10:02:00,24.0,19.0,-100.00,NW,326,1.0,2.0,82,0.00,,,0.00,26.000000,,2013-11-04 15:02:00,
2013-11-04 10:10:00,29.0,18.0,-100.00,ENE,72,2.0,5.0,63,0.00,,,0.00,32.000000,,2013-11-04 15:10:00,
2013-11-04 10:42:00,29.0,18.0,-100.00,ENE,72,2.0,5.0,63,0.00,,,0.00,32.000000,,2013-11-04 15:42:00,
2013-11-04 10:52:00,29.0,18.0,-100.00,ENE,72,2.0,5.0,63,0.00,,,0.00,32.000000,,2013-11-04 15:52:00,
2013-11-04 11:03:00,29.0,18.0,-100.00,ENE,72,2.0,5.0,63,0.00,,,0.00,32.000000,,2013-11-04 16:03:00,
2013-11-04 11:10:00,32.0,15.0,-100.00,NW,312,3.0,8.0,50,0.00,,,0.00,41.000000,,2013-11-04 16:10:00,
2013-11-04 11:43:00,32.0,15.0,-100.00,NW,312,3.0,8.0,50,0.00,,,0.00,41.000000,,2013-11-04 16:43:00,
2013-11-04 11:53:00,32.0,15.0,-100.00,NW,312,3.0,8.0,50,0.00,,,0.00,41.000000,,2013-11-04 16:53:00,
2013-11-04 12:03:00,32.0,15.0,-100.00,NW,312,3.0,8.0,50,0.00,,,0.00,41.000000,,2013-11-04 17:03:00,
2013-11-04 12:10:00,35.0,16.0,-100.00,North,8,2.0,7.0,45,0.00,,,0.00,116.000000,,2013-11-04 17:10:00,
2013-11-04 12:42:00,35.0,16.0,-100.00,North,8,2.0,7.0,45,0.00,,,0.00,116.000000,,2013-11-04 17:42:00,
2013-11-04 12:53:00,35.0,16.0,-100.00,North,8,2.0,7.0,45,0.00,,,0.00,116.000000,,2013-11-04 17:53:00,
2013-11-04 13:02:00,35.0,16.0,-100.00,North,8,2.0,7.0,45,0.00,,,0.00,116.000000,,2013-11-04 18:02:00,
2013-11-04 13:10:00,38.0,12.0,-100.00,West,263,4.0,9.0,34,0.00,,,0.00,285.000000,,2013-11-04 18:10:00,
2013-11-04 13:42:00,38.0,12.0,-100.00,West,263,4.0,9.0,34,0.00,,,0.00,285.000000,,2013-11-04 18:42:00,
2013-11-04 13:52:00,38.0,12.0,-100.00,West,263,4.0,9.0,34,0.00,,,0.00,285.000000,,2013-11-04 18:52:00,
2013-11-04 14:01:00,38.0,12.0,-100.00,West,263,4.0,9.0,34,0.00,,,0.00,285.000000,,2013-11-04 19:01:00,
2013-11-04 14:10:00,37.0,13.0,-100.00,ENE,58,2.0,6.0,36,0.00,,,0.00,57.000000,,2013-11-04 19:10:00,
2013-11-04 14:42:00,37.0,13.0,-100.00,ENE,58,2.0,6.0,36,0.00,,,0.00,57.000000,,2013-11-04 19:42:00,
2013-11-04 14:52:00,37.0,13.0,-100.00,ENE,58,2.0,6.0,36,0.00,,,0.00,57.000000,,2013-11-04 19:52:00,
2013-11-04 15:01:00,37.0,13.0,-100.00,ENE,58,2.0,6.0,36,0.00,,,0.00,57.000000,,2013-11-04 20:01:00,
2013-11-04 15:10:00,37.0,13.0,-100.00,East,93,2.0,6.0,36,0.00,,,0.00,72.000000,,2013-11-04 20:10:00,
2013-11-04 15:42:00,37.0,13.0,-100.00,East,93,2.0,6.0,36,0.00,,,0.00,72.000000,,2013-11-04 20:42:00,
2013-11-04 15:53:00,37.0,13.0,-100.00,East,93,2.0,6.0,36,0.00,,,0.00,72.000000,,2013-11-04 20:53:00,
2013-11-04 16:03:00,37.0,13.0,-100.00,East,93,2.0,6.0,36,0.00,,,0.00,72.000000,,2013-11-04 21:03:00,
2013-11-04 16:10:00,34.0,13.0,-100.00,East,83,1.0,4.0,41,0.00,,,0.00,38.000000,,2013-11-04 21:10:00,
2013-11-04 16:45:00,34.0,13.0,-100.00,East,83,1.0,4.0,41,0.00,,,0.00,38.000000,,2013-11-04 21:45:00,
2013-11-04 16:54:00,34.0,13.0,-100.00,East,83,1.0,4.0,41,0.00,,,0.00,38.000000,,2013-11-04 21:54:00,
2013-11-04 17:04:00,34.0,13.0,-100.00,East,83,1.0,4.0,41,0.00,,,0.00,38.000000,,2013-11-04 22:04:00,
2013-11-04 17:10:00,28.0,16.0,-100.00,East,85,2.0,2.0,59,0.00,,,0.00,2.000000,,2013-11-04 22:10:00,
2013-11-04 17:43:00,28.0,16.0,-100.00,East,85,2.0,2.0,59,0.00,,,0.00,2.000000,,2013-11-04 22:43:00,
2013-11-04 17:53:00,28.0,16.0,-100.00,East,85,2.0,2.0,59,0.00,,,0.00,2.000000,,2013-11-04 22:53:00,
2013-11-04 18:03:00,28.0,16.0,-100.00,East,85,2.0,2.0,59,0.00,,,0.00,2.000000,,2013-11-04 23:03:00,
2013-11-04 18:10:00,27.0,16.0,-100.00,East,88,0.0,2.0,64,0.00,,,0.00,0.000000,,2013-11-04 23:10:00,
2013-11-04 18:43:00,27.0,16.0,-100.00,East,88,0.0,2.0,64,0.00,,,0.00,0.000000,,2013-11-04 23:43:00,
2013-11-04 18:53:00,27.0,16.0,-100.00,East,88,0.0,2.0,64,0.00,,,0.00,0.000000,,2013-11-04 23:53:00,
2013-11-04 19:02:00,27.0,16.0,-100.00,East,88,0.0,2.0,64,0.00,,,0.00,0.000000,,2013-11-05 00:02:00,
2013-11-04 19:10:00,25.0,16.0,-100.00,ENE,71,0.0,2.0,69,0.00,,,0.00,0.000000,,2013-11-05 00:10:00,
2013-11-04 19:42:00,25.0,16.0,-100.00,ENE,71,0.0,2.0,69,0.00,,,0.00,0.000000,,2013-11-05 00:42:00,
2013-11-04 19:52:00,25.0,16.0,-100.00,ENE,71,0.0,2.0,69,0.00,,,0.00,0.000000,,2013-11-05 00:52:00,
2013-11-04 20:02:00,25.0,16.0,-100.00,ENE,71,0.0,2.0,69,0.00,,,0.00,0.000000,,2013-11-05 01:02:00,
2013-11-04 20:10:00,23.0,16.0,-100.00,SE,129,0.0,2.0,74,0.00,,,0.00,0.000000,,2013-11-05 01:10:00,
2013-11-04 20:42:00,23.0,16.0,-100.00,SE,129,0.0,2.0,74,0.00,,,0.00,0.000000,,2013-11-05 01:42:00,
2013-11-04 20:52:00,23.0,16.0,-100.00,SE,129,0.0,2.0,74,0.00,,,0.00,0.000000,,2013-11-05 01:52:00,
2013-11-04 21:02:00,23.0,16.0,-100.00,SE,129,0.0,2.0,74,0.00,,,0.00,0.000000,,2013-11-05 02:02:00,
2013-11-04 21:10:00,22.0,16.0,-100.00,East,91,1.0,2.0,78,0.00,,,0.00,0.000000,,2013-11-05 02:10:00,
2013-11-04 21:42:00,22.0,16.0,-100.00,East,91,1.0,2.0,78,0.00,,,0.00,0.000000,,2013-11-05 02:42:00,
2013-11-04 21:52:00,22.0,16.0,-100.00,East,91,1.0,2.0,78,0.00,,,0.00,0.000000,,2013-11-05 02:52:00,
2013-11-04 22:02:00,22.0,16.0,-100.00,East,91,1.0,2.0,78,0.00,,,0.00,0.000000,,2013-11-05 03:02:00,
2013-11-04 22:10:00,21.0,16.0,-100.00,SSE,147,1.0,2.0,80,0.00,,,0.00,0.000000,,2013-11-05 03:10:00,
2013-11-04 22:44:00,21.0,16.0,-100.00,SSE,147,1.0,2.0,80,0.00,,,0.00,0.000000,,2013-11-05 03:44:00,
2013-11-04 22:54:00,21.0,16.0,-100.00,SSE,147,1.0,2.0,80,0.00,,,0.00,0.000000,,2013-11-05 03:54:00,
2013-11-04 23:04:00,21.0,16.0,-100.00,SSE,147,1.0,2.0,80,0.00,,,0.00,0.000000,,2013-11-05 04:04:00,
2013-11-04 23:10:00,20.0,16.0,-100.00,SE,133,1.0,3.0,83,0.00,,,0.00,0.000000,,2013-11-05 04:10:00,
2013-11-04 23:44:00,20.0,16.0,-100.00,SE,133,1.0,3.0,83,0.00,,,0.00,0.000000,,2013-11-05 04:44:00,
2013-11-04 23:53:00,20.0,16.0,-100.00,SE,133,1.0,3.0,83,0.00,,,0.00,0.000000,,2013-11-05 04:53:00,